Preview of NWS' New Version of Forecast
This preview is not operational and should not be used for support decisions.

Terminal Aerodrome Forecast (TAF)

Issued by National Weather Service (NWS)

                            
000
FTUS42 KKEY 272339
TAFEYW
TAF
KEYW 272339Z 2800/2824 15013G21KT 5SM -TSRA VCSH FEW012CB SCT030
      BKN100
      TEMPO 2800/2802 18016G26KT 1SM +TSRA SCT012CB BKN030 OVC050
     FM281200 18014G23KT P6SM VCSH SCT020 BKN100=